Time;durP1;ratioP1;P1;durP2;ratioP2;P2;SDS_P1;SDS_P2;PMS_P1;PMS_P2;Temp;Humidity;BMP_temperature;BMP_pressure;BME280_temperature;BME280_humidity;BME280_pressure;Samples;Min_cycle;Max_cycle;Signal;HPM_P1;HPM_P2
2021/01/24 00:05:10;;;;;;;15.57;13.27;;;;;;;;;;4685450;28;20461;-53
2021/01/24 00:07:36;;;;;;;15.95;14.32;;;;;;;;;;4197490;34;20109;-56
2021/01/24 00:10:03;;;;;;;14.93;13.32;;;;;;;;;;4201589;34;20120;-57
2021/01/24 00:12:29;;;;;;;14.63;13.13;;;;;;;;;;4191769;34;20536;-56
2021/01/24 00:14:55;;;;;;;14.43;12.93;;;;;;;;;;4191915;34;20123;-57
2021/01/24 00:17:21;;;;;;;14.93;13.43;;;;;;;;;;4191756;34;20125;-57
2021/01/24 00:19:46;;;;;;;16.55;13.40;;;;;;;;;;4191629;34;20548;-57
2021/01/24 00:22:12;;;;;;;13.88;12.00;;;;;;;;;;4191656;34;20461;-57
2021/01/24 00:24:38;;;;;;;16.98;14.93;;;;;;;;;;4191575;34;20125;-57
2021/01/24 00:27:04;;;;;;;15.55;13.75;;;;;;;;;;4191635;34;20204;-56
2021/01/24 00:29:30;;;;;;;15.80;13.35;;;;;;;;;;4191414;34;20587;-57
2021/01/24 00:31:56;;;;;;;15.38;13.77;;;;;;;;;;4191781;34;20260;-57
2021/01/24 00:34:21;;;;;;;15.70;14.00;;;;;;;;;;4191545;34;20197;-58
2021/01/24 00:36:47;;;;;;;16.92;14.50;;;;;;;;;;4191581;34;20126;-58
2021/01/24 00:39:13;;;;;;;15.23;13.43;;;;;;;;;;4191490;34;20117;-57
2021/01/24 00:41:39;;;;;;;16.67;14.85;;;;;;;;;;4191608;34;20102;-57
2021/01/24 00:44:05;;;;;;;15.20;13.57;;;;;;;;;;4191800;34;20223;-57
2021/01/24 00:46:31;;;;;;;15.85;14.15;;;;;;;;;;4191425;34;20122;-57
2021/01/24 00:48:57;;;;;;;16.12;13.70;;;;;;;;;;4191381;34;20529;-57
2021/01/24 00:51:23;;;;;;;15.23;12.88;;;;;;;;;;4191590;34;20098;-57
2021/01/24 00:53:48;;;;;;;14.43;12.98;;;;;;;;;;4191677;34;20138;-57
2021/01/24 00:56:14;;;;;;;14.75;13.27;;;;;;;;;;4191380;34;20246;-57
2021/01/24 00:58:41;;;;;;;13.62;12.18;;;;;;;;;;4191434;34;20756;-57
2021/01/24 01:01:07;;;;;;;14.77;13.38;;;;;;;;;;4191353;34;20209;-58
2021/01/24 01:03:33;;;;;;;12.50;11.12;;;;;;;;;;4191326;34;20549;-57
2021/01/24 01:05:59;;;;;;;13.35;12.15;;;;;;;;;;4190990;34;20114;-57
2021/01/24 01:08:25;;;;;;;13.18;11.75;;;;;;;;;;4191494;34;20197;-57
2021/01/24 01:10:51;;;;;;;13.05;11.75;;;;;;;;;;4191168;34;20129;-57
2021/01/24 01:13:17;;;;;;;13.43;10.98;;;;;;;;;;4191212;34;20117;-57
2021/01/24 01:15:42;;;;;;;13.05;11.35;;;;;;;;;;4191215;34;20121;-57
2021/01/24 01:18:08;;;;;;;12.75;11.48;;;;;;;;;;4191219;34;20092;-57
2021/01/24 01:20:34;;;;;;;12.70;11.40;;;;;;;;;;4191047;34;20475;-57
2021/01/24 01:23:00;;;;;;;12.80;11.50;;;;;;;;;;4191221;34;20533;-57
2021/01/24 01:25:26;;;;;;;12.77;11.57;;;;;;;;;;4191114;34;20565;-58
2021/01/24 01:27:52;;;;;;;12.20;11.00;;;;;;;;;;4191155;34;20189;-57
2021/01/24 01:30:18;;;;;;;12.75;11.35;;;;;;;;;;4191059;34;20205;-57
2021/01/24 01:32:44;;;;;;;12.37;11.12;;;;;;;;;;4191063;34;20121;-57
2021/01/24 01:35:10;;;;;;;12.25;11.02;;;;;;;;;;4190434;34;20117;-57
2021/01/24 01:37:36;;;;;;;12.50;11.20;;;;;;;;;;4189620;34;20106;-57
2021/01/24 01:40:04;;;;;;;12.23;11.00;;;;;;;;;;4190984;34;20117;-57
2021/01/24 01:42:30;;;;;;;11.93;10.65;;;;;;;;;;4189865;34;20102;-57
2021/01/24 01:44:56;;;;;;;11.25;10.02;;;;;;;;;;4190930;34;20121;-57
2021/01/24 01:47:23;;;;;;;11.48;10.32;;;;;;;;;;4191045;34;20549;-58
2021/01/24 01:49:55;;;;;;;11.68;10.57;;;;;;;;;;4190798;34;20464;-57
2021/01/24 01:52:28;;;;;;;11.25;10.15;;;;;;;;;;4190892;34;20125;-57
2021/01/24 01:54:54;;;;;;;10.00;9.00;;;;;;;;;;4190755;34;20193;-57
2021/01/24 01:57:20;;;;;;;11.82;10.73;;;;;;;;;;4191140;34;20168;-58
2021/01/24 01:59:46;;;;;;;11.07;9.88;;;;;;;;;;4190692;34;20121;-57
2021/01/24 02:02:37;;;;;;;10.32;9.32;;;;;;;;;;4190849;34;20517;-58
2021/01/24 02:05:18;;;;;;;11.80;10.00;;;;;;;;;;4179682;34;20481;-57
2021/01/24 02:07:48;;;;;;;11.23;10.13;;;;;;;;;;4178057;34;20110;-57
2021/01/24 02:10:29;;;;;;;10.30;9.30;;;;;;;;;;4166767;34;20105;-57
2021/01/24 02:13:25;;;;;;;11.52;10.35;;;;;;;;;;4190665;34;20439;-57
2021/01/24 02:15:51;;;;;;;11.63;10.43;;;;;;;;;;4179965;34;20296;-57
2021/01/24 02:18:17;;;;;;;11.38;10.18;;;;;;;;;;4190692;34;20692;-57
2021/01/24 02:21:02;;;;;;;11.18;10.07;;;;;;;;;;4166402;34;20514;-57
2021/01/24 02:23:27;;;;;;;11.25;10.05;;;;;;;;;;4189279;34;20102;-57
2021/01/24 02:26:43;;;;;;;10.63;9.57;;;;;;;;;;4177484;34;20241;-57
2021/01/24 02:29:27;;;;;;;10.52;9.52;;;;;;;;;;4178130;34;20132;-56
2021/01/24 02:31:53;;;;;;;10.60;9.55;;;;;;;;;;4190752;34;20098;-57
2021/01/24 02:34:20;;;;;;;11.05;9.95;;;;;;;;;;4166269;34;20153;-57
2021/01/24 02:36:46;;;;;;;10.10;9.13;;;;;;;;;;4177779;34;20102;-57
2021/01/24 02:39:12;;;;;;;10.45;9.38;;;;;;;;;;4177657;34;20205;-58
2021/01/24 02:41:38;;;;;;;10.55;9.55;;;;;;;;;;4177675;34;20106;-57
2021/01/24 02:44:04;;;;;;;10.48;9.48;;;;;;;;;;4166528;34;20511;-57
2021/01/24 02:46:30;;;;;;;10.60;9.48;;;;;;;;;;4166557;34;20098;-57
2021/01/24 02:48:56;;;;;;;11.85;10.60;;;;;;;;;;4168356;34;20550;-57
2021/01/24 02:51:22;;;;;;;10.95;9.85;;;;;;;;;;4192483;34;20571;-58
2021/01/24 02:53:48;;;;;;;12.13;10.85;;;;;;;;;;4168407;34;20542;-57
2021/01/24 02:56:16;;;;;;;11.80;10.65;;;;;;;;;;4168342;34;20221;-57
2021/01/24 02:58:42;;;;;;;11.63;10.43;;;;;;;;;;4192636;34;20497;-58
2021/01/24 03:01:08;;;;;;;12.02;10.85;;;;;;;;;;4168113;34;20119;-57
2021/01/24 03:03:34;;;;;;;10.82;9.73;;;;;;;;;;4179493;34;20116;-57
2021/01/24 03:06:00;;;;;;;10.80;9.80;;;;;;;;;;4192061;34;20125;-57
2021/01/24 03:08:26;;;;;;;10.40;9.30;;;;;;;;;;4192426;34;20094;-57
2021/01/24 03:10:52;;;;;;;10.80;9.75;;;;;;;;;;4179579;34;20098;-58
2021/01/24 03:13:17;;;;;;;10.68;9.68;;;;;;;;;;4192282;34;20110;-57
2021/01/24 03:15:43;;;;;;;9.93;9.00;;;;;;;;;;4192332;34;20129;-58
2021/01/24 03:18:11;;;;;;;10.38;9.38;;;;;;;;;;4192396;34;20149;-58
2021/01/24 03:20:40;;;;;;;10.30;9.30;;;;;;;;;;4179452;34;20134;-58
2021/01/24 03:23:06;;;;;;;10.98;9.88;;;;;;;;;;4168177;34;20118;-57
2021/01/24 03:25:32;;;;;;;10.95;9.85;;;;;;;;;;4179502;34;20157;-57
2021/01/24 03:27:58;;;;;;;11.05;10.00;;;;;;;;;;4168007;34;20541;-57
2021/01/24 03:30:24;;;;;;;11.23;10.13;;;;;;;;;;4179278;34;20181;-57
2021/01/24 03:32:50;;;;;;;10.63;9.45;;;;;;;;;;4179329;34;20156;-57
2021/01/24 03:35:16;;;;;;;10.80;9.75;;;;;;;;;;4179407;34;20102;-57
2021/01/24 03:37:42;;;;;;;11.60;10.40;;;;;;;;;;4192309;34;20125;-57
2021/01/24 03:40:08;;;;;;;10.85;9.77;;;;;;;;;;4192007;34;20189;-58
2021/01/24 03:42:34;;;;;;;11.02;9.80;;;;;;;;;;4191946;34;20098;-58
2021/01/24 03:45:00;;;;;;;10.82;9.63;;;;;;;;;;4191931;34;20128;-57
2021/01/24 03:47:26;;;;;;;9.75;8.85;;;;;;;;;;4191966;34;20544;-58
2021/01/24 03:49:52;;;;;;;9.13;8.23;;;;;;;;;;4179000;34;20220;-58
2021/01/24 03:52:17;;;;;;;9.63;8.63;;;;;;;;;;4191983;34;20228;-58
2021/01/24 03:54:43;;;;;;;9.90;9.00;;;;;;;;;;4191927;34;20212;-58
2021/01/24 03:57:09;;;;;;;11.35;10.15;;;;;;;;;;4192191;34;20213;-58
2021/01/24 03:59:35;;;;;;;9.73;8.73;;;;;;;;;;4191387;34;20125;-58
2021/01/24 04:02:01;;;;;;;10.77;9.68;;;;;;;;;;4191830;34;20103;-58
2021/01/24 04:04:27;;;;;;;11.15;10.13;;;;;;;;;;4191604;34;20217;-57
2021/01/24 04:06:53;;;;;;;11.20;9.77;;;;;;;;;;4191711;34;20122;-58
2021/01/24 04:09:19;;;;;;;13.50;11.25;;;;;;;;;;4191625;34;20114;-58
2021/01/24 04:11:45;;;;;;;11.65;10.45;;;;;;;;;;4191783;34;20129;-58
2021/01/24 04:14:11;;;;;;;11.75;10.65;;;;;;;;;;4191919;34;20109;-58
2021/01/24 04:16:37;;;;;;;12.43;11.25;;;;;;;;;;4191534;34;20140;-58
2021/01/24 04:19:03;;;;;;;12.55;11.12;;;;;;;;;;4191713;34;20544;-58
2021/01/24 04:21:29;;;;;;;12.18;11.02;;;;;;;;;;4191726;34;20125;-58
2021/01/24 04:23:55;;;;;;;12.93;11.65;;;;;;;;;;4191627;34;20194;-58
2021/01/24 04:26:20;;;;;;;12.30;10.98;;;;;;;;;;4191812;34;20137;-58
2021/01/24 04:28:46;;;;;;;13.23;11.82;;;;;;;;;;4191574;34;20110;-58
2021/01/24 04:31:12;;;;;;;12.30;11.12;;;;;;;;;;4191450;34;20108;-58
2021/01/24 04:33:38;;;;;;;13.52;12.23;;;;;;;;;;4191616;34;20527;-58
2021/01/24 04:36:06;;;;;;;14.00;12.35;;;;;;;;;;4191456;34;20229;-58
2021/01/24 04:38:31;;;;;;;14.18;12.52;;;;;;;;;;4191499;34;20125;-58
2021/01/24 04:40:57;;;;;;;14.90;13.32;;;;;;;;;;4191425;34;20102;-58
2021/01/24 04:43:23;;;;;;;13.98;12.63;;;;;;;;;;4178723;34;20554;-58
2021/01/24 04:45:49;;;;;;;14.07;12.60;;;;;;;;;;4191606;34;20125;-58
2021/01/24 04:48:15;;;;;;;14.25;12.90;;;;;;;;;;4167500;34;20440;-56
2021/01/24 04:50:40;;;;;;;14.55;13.05;;;;;;;;;;4184328;34;20182;-56
2021/01/24 04:53:06;;;;;;;13.43;12.02;;;;;;;;;;4178528;34;20446;-57
2021/01/24 04:55:32;;;;;;;12.75;10.95;;;;;;;;;;4178670;34;20105;-57
2021/01/24 04:57:58;;;;;;;13.48;12.18;;;;;;;;;;4191420;34;20105;-57
2021/01/24 05:00:24;;;;;;;13.15;11.82;;;;;;;;;;4189905;34;20110;-57
2021/01/24 05:02:50;;;;;;;13.80;12.00;;;;;;;;;;4186226;34;20122;-57
2021/01/24 05:05:16;;;;;;;12.63;11.23;;;;;;;;;;4183229;34;20134;-57
2021/01/24 05:07:56;;;;;;;13.07;11.27;;;;;;;;;;4186503;34;20122;-57
2021/01/24 05:10:26;;;;;;;11.73;10.52;;;;;;;;;;4190435;34;20110;-57
2021/01/24 05:12:53;;;;;;;12.18;10.88;;;;;;;;;;4177466;34;20491;-58
2021/01/24 05:15:20;;;;;;;13.68;12.20;;;;;;;;;;4177443;34;20126;-56
2021/01/24 05:17:56;;;;;;;14.18;11.63;;;;;;;;;;4177370;34;20102;-56
2021/01/24 05:20:23;;;;;;;13.75;12.20;;;;;;;;;;4185282;34;20174;-56
2021/01/24 05:22:49;;;;;;;13.55;12.25;;;;;;;;;;4191267;34;20270;-55
2021/01/24 05:25:29;;;;;;;12.18;11.02;;;;;;;;;;4191165;34;20130;-59
2021/01/24 05:27:55;;;;;;;14.18;11.70;;;;;;;;;;4191259;34;20118;-56
2021/01/24 05:30:31;;;;;;;13.70;11.80;;;;;;;;;;4190909;34;20543;-57
2021/01/24 05:32:58;;;;;;;12.55;11.20;;;;;;;;;;4191099;34;20105;-57
2021/01/24 05:35:24;;;;;;;13.25;10.65;;;;;;;;;;4190935;34;20133;-58
2021/01/24 05:37:53;;;;;;;12.45;10.80;;;;;;;;;;4180556;34;20102;-59
2021/01/24 05:40:26;;;;;;;12.55;10.32;;;;;;;;;;4165318;34;20098;-57
2021/01/24 05:42:52;;;;;;;12.35;10.30;;;;;;;;;;4177492;34;20114;-56
2021/01/24 05:45:18;;;;;;;12.80;10.23;;;;;;;;;;4153159;34;20194;-56
2021/01/24 05:47:45;;;;;;;12.13;10.43;;;;;;;;;;4177128;34;20213;-57
2021/01/24 05:50:15;;;;;;;12.95;10.52;;;;;;;;;;4177011;34;20539;-57
2021/01/24 05:52:46;;;;;;;11.27;10.07;;;;;;;;;;4177334;34;20128;-57
2021/01/24 05:55:27;;;;;;;12.82;11.45;;;;;;;;;;4172355;34;20150;-59
2021/01/24 05:57:53;;;;;;;11.88;10.32;;;;;;;;;;4154954;34;20218;-59
2021/01/24 06:00:20;;;;;;;11.35;10.15;;;;;;;;;;4177274;34;20196;-59
2021/01/24 06:02:45;;;;;;;12.15;10.63;;;;;;;;;;4154464;34;20098;-59
2021/01/24 06:05:12;;;;;;;12.37;10.50;;;;;;;;;;4176807;34;20205;-57
2021/01/24 06:07:37;;;;;;;11.63;10.18;;;;;;;;;;4177195;34;20187;-57
2021/01/24 06:10:04;;;;;;;11.43;10.32;;;;;;;;;;4176785;34;20114;-57
2021/01/24 06:12:30;;;;;;;13.82;11.25;;;;;;;;;;4177170;34;20201;-57
2021/01/24 06:14:56;;;;;;;13.00;11.70;;;;;;;;;;4176787;34;20114;-57
2021/01/24 06:17:28;;;;;;;13.18;11.80;;;;;;;;;;4164173;34;20198;-57
2021/01/24 06:19:59;;;;;;;14.35;12.85;;;;;;;;;;4177164;34;20102;-57
2021/01/24 06:23:02;;;;;;;12.77;11.57;;;;;;;;;;4178025;34;20556;-53
2021/01/24 06:25:33;;;;;;;13.82;11.20;;;;;;;;;;4169868;34;20118;-54
2021/01/24 06:28:19;;;;;;;12.63;10.70;;;;;;;;;;4178950;34;20118;-57
2021/01/24 06:30:45;;;;;;;13.15;10.90;;;;;;;;;;4155745;34;20108;-57
2021/01/24 06:33:15;;;;;;;11.93;9.93;;;;;;;;;;4177590;34;20186;-56
2021/01/24 06:35:56;;;;;;;10.38;9.30;;;;;;;;;;4178969;34;20473;-54
2021/01/24 06:38:30;;;;;;;12.73;10.07;;;;;;;;;;4190861;34;20110;-55
2021/01/24 06:40:57;;;;;;;11.90;9.82;;;;;;;;;;4192404;34;20630;-57
2021/01/24 06:43:37;;;;;;;12.77;9.77;;;;;;;;;;4192427;34;20114;-58
2021/01/24 06:46:26;;;;;;;9.98;8.93;;;;;;;;;;4192727;34;20130;-57
2021/01/24 06:48:52;;;;;;;11.80;9.48;;;;;;;;;;4186454;34;20090;-57
2021/01/24 06:51:45;;;;;;;10.60;9.48;;;;;;;;;;4192531;34;20117;-57
2021/01/24 06:54:17;;;;;;;11.48;9.70;;;;;;;;;;4190889;34;20106;-58
2021/01/24 06:56:46;;;;;;;11.30;9.55;;;;;;;;;;4192276;34;20099;-58
2021/01/24 06:59:12;;;;;;;10.60;8.88;;;;;;;;;;4192340;34;20094;-59
2021/01/24 07:01:42;;;;;;;11.27;9.73;;;;;;;;;;4189929;34;20098;-59
2021/01/24 07:04:20;;;;;;;13.55;10.13;;;;;;;;;;4186378;34;20480;-57
2021/01/24 07:06:50;;;;;;;11.43;9.75;;;;;;;;;;4192144;34;20136;-58
2021/01/24 07:09:27;;;;;;;10.30;9.27;;;;;;;;;;4192042;34;20186;-54
2021/01/24 07:12:03;;;;;;;10.48;9.43;;;;;;;;;;4192291;34;20121;-58
2021/01/24 07:14:41;;;;;;;13.75;10.82;;;;;;;;;;4179326;34;20122;-56
2021/01/24 07:17:09;;;;;;;12.23;9.75;;;;;;;;;;4192276;34;20129;-58
2021/01/24 07:19:55;;;;;;;10.80;9.10;;;;;;;;;;4189919;34;20122;-59
2021/01/24 07:22:22;;;;;;;12.35;9.75;;;;;;;;;;4178433;34;20538;-56
2021/01/24 07:24:48;;;;;;;11.48;9.52;;;;;;;;;;4178383;34;20606;-60
2021/01/24 07:27:15;;;;;;;10.85;9.68;;;;;;;;;;4178380;34;20447;-57
2021/01/24 07:29:42;;;;;;;10.77;9.68;;;;;;;;;;4178329;34;20142;-58
2021/01/24 07:32:15;;;;;;;11.77;9.02;;;;;;;;;;4178392;34;20126;-59
2021/01/24 07:34:45;;;;;;;10.75;9.52;;;;;;;;;;4177687;34;20514;-58
2021/01/24 07:37:13;;;;;;;12.43;9.77;;;;;;;;;;4178533;34;20118;-57
2021/01/24 07:39:39;;;;;;;10.02;8.65;;;;;;;;;;4184145;34;20438;-55
2021/01/24 07:42:05;;;;;;;11.27;9.57;;;;;;;;;;4178243;34;20214;-53
2021/01/24 07:44:31;;;;;;;10.30;8.52;;;;;;;;;;4177990;34;20142;-55
2021/01/24 07:46:57;;;;;;;11.93;9.65;;;;;;;;;;4178230;34;20119;-57
2021/01/24 07:49:23;;;;;;;10.75;9.27;;;;;;;;;;4184350;34;20114;-57
2021/01/24 07:51:50;;;;;;;9.63;8.63;;;;;;;;;;4183427;34;20475;-57
2021/01/24 07:54:15;;;;;;;10.25;8.52;;;;;;;;;;4172117;34;20129;-56
2021/01/24 07:56:42;;;;;;;13.68;11.23;;;;;;;;;;4184761;34;20575;-54
2021/01/24 07:59:08;;;;;;;9.77;8.35;;;;;;;;;;4183065;34;20118;-53
2021/01/24 08:01:34;;;;;;;9.88;8.43;;;;;;;;;;4172288;34;20133;-56
2021/01/24 08:04:01;;;;;;;10.38;8.38;;;;;;;;;;4186176;34;20534;-57
2021/01/24 08:06:27;;;;;;;9.57;8.60;;;;;;;;;;4177889;34;20108;-50
2021/01/24 08:08:53;;;;;;;11.70;9.65;;;;;;;;;;4177989;34;20110;-57
2021/01/24 08:11:19;;;;;;;11.20;8.80;;;;;;;;;;4178102;34;20115;-53
2021/01/24 08:13:45;;;;;;;10.00;8.70;;;;;;;;;;4177988;34;20098;-54
2021/01/24 08:16:15;;;;;;;11.32;9.90;;;;;;;;;;4165617;34;20169;-51
2021/01/24 08:18:42;;;;;;;11.25;9.45;;;;;;;;;;4178198;34;20503;-51
2021/01/24 08:21:08;;;;;;;9.88;8.48;;;;;;;;;;4177901;34;20106;-51
2021/01/24 08:23:34;;;;;;;11.23;8.98;;;;;;;;;;4177879;34;20112;-49
2021/01/24 08:25:59;;;;;;;11.27;9.15;;;;;;;;;;4177859;34;20142;-50
2021/01/24 08:28:26;;;;;;;9.60;8.57;;;;;;;;;;4165109;34;20566;-55
2021/01/24 08:30:52;;;;;;;10.32;8.85;;;;;;;;;;4177696;34;20189;-52
2021/01/24 08:33:19;;;;;;;12.65;9.20;;;;;;;;;;4177768;34;20129;-54
2021/01/24 08:35:45;;;;;;;11.80;10.23;;;;;;;;;;4177668;34;20206;-52
2021/01/24 08:38:13;;;;;;;11.98;9.63;;;;;;;;;;4165324;34;20178;-51
2021/01/24 08:40:39;;;;;;;11.90;9.77;;;;;;;;;;4177782;34;20138;-50
2021/01/24 08:43:06;;;;;;;11.02;8.85;;;;;;;;;;4165185;34;20117;-52
2021/01/24 08:45:32;;;;;;;11.12;7.82;;;;;;;;;;4177571;34;20161;-53
2021/01/24 08:48:02;;;;;;;9.95;6.62;;;;;;;;;;4177722;34;20188;-53
2021/01/24 08:50:34;;;;;;;10.00;8.63;;;;;;;;;;4177889;34;20191;-49
2021/01/24 08:53:01;;;;;;;10.65;8.27;;;;;;;;;;4185604;34;20090;-53
2021/01/24 08:55:27;;;;;;;9.90;8.40;;;;;;;;;;4191219;34;20134;-54
2021/01/24 08:57:54;;;;;;;9.88;8.38;;;;;;;;;;4191395;34;20107;-63
2021/01/24 09:00:20;;;;;;;9.75;6.72;;;;;;;;;;4191052;34;20126;-56
2021/01/24 09:02:46;;;;;;;9.88;7.40;;;;;;;;;;4191491;34;20132;-50
2021/01/24 09:05:28;;;;;;;9.52;7.55;;;;;;;;;;4178368;34;20126;-53
2021/01/24 09:07:54;;;;;;;10.75;8.77;;;;;;;;;;4177543;34;20110;-56
2021/01/24 09:10:33;;;;;;;8.85;7.28;;;;;;;;;;4177317;34;20148;-52
2021/01/24 09:12:59;;;;;;;10.90;8.13;;;;;;;;;;4177477;34;20482;-56
2021/01/24 09:15:25;;;;;;;9.15;8.15;;;;;;;;;;4178799;34;20133;-56
2021/01/24 09:17:53;;;;;;;8.68;6.00;;;;;;;;;;4171061;34;20514;-51
2021/01/24 09:20:19;;;;;;;9.73;8.73;;;;;;;;;;4183073;34;20172;-51
2021/01/24 09:22:45;;;;;;;8.57;6.97;;;;;;;;;;4182813;34;20179;-49
2021/01/24 09:25:11;;;;;;;8.45;7.53;;;;;;;;;;4183570;34;20225;-52
2021/01/24 09:27:37;;;;;;;8.52;6.68;;;;;;;;;;4182664;34;20499;-51
2021/01/24 09:30:05;;;;;;;9.13;7.70;;;;;;;;;;4182756;34;20112;-51
2021/01/24 09:32:31;;;;;;;11.23;7.12;;;;;;;;;;4183827;34;20185;-49
2021/01/24 09:34:57;;;;;;;12.60;7.85;;;;;;;;;;4182282;34;20149;-58
2021/01/24 09:37:23;;;;;;;9.93;7.72;;;;;;;;;;4182650;34;20534;-51
2021/01/24 09:39:49;;;;;;;9.60;7.90;;;;;;;;;;4183335;34;20221;-56
2021/01/24 09:42:15;;;;;;;9.25;7.60;;;;;;;;;;4169842;34;20109;-58
2021/01/24 09:44:41;;;;;;;7.37;6.53;;;;;;;;;;4183070;34;20114;-58
2021/01/24 09:47:07;;;;;;;9.00;7.85;;;;;;;;;;4170273;34;20146;-54
2021/01/24 09:49:33;;;;;;;8.27;7.05;;;;;;;;;;4180415;34;20514;-53
2021/01/24 09:51:58;;;;;;;6.78;6.00;;;;;;;;;;4182707;34;20762;-49
2021/01/24 09:54:24;;;;;;;9.63;7.85;;;;;;;;;;4174090;34;20127;-50
2021/01/24 09:56:51;;;;;;;8.75;6.72;;;;;;;;;;4190096;34;20114;-54
2021/01/24 09:59:17;;;;;;;8.95;6.87;;;;;;;;;;4190791;34;20108;-53
2021/01/24 10:01:43;;;;;;;9.48;8.48;;;;;;;;;;4190565;34;20168;-50
2021/01/24 10:04:09;;;;;;;9.52;8.52;;;;;;;;;;4190709;34;20090;-53
2021/01/24 10:06:35;;;;;;;7.65;6.80;;;;;;;;;;4190358;34;20129;-50
2021/01/24 10:09:01;;;;;;;7.85;6.80;;;;;;;;;;4190578;34;20109;-52
2021/01/24 10:11:27;;;;;;;8.00;7.20;;;;;;;;;;4178010;34;20116;-50
2021/01/24 10:13:53;;;;;;;8.70;6.32;;;;;;;;;;4190621;34;20098;-52
2021/01/24 10:16:19;;;;;;;7.35;6.65;;;;;;;;;;4190794;34;20136;-50
2021/01/24 10:18:45;;;;;;;9.07;7.72;;;;;;;;;;4190493;34;20220;-53
2021/01/24 10:21:11;;;;;;;8.73;7.87;;;;;;;;;;4190386;34;20189;-54
2021/01/24 10:23:38;;;;;;;10.23;7.78;;;;;;;;;;4190753;34;20126;-58
2021/01/24 10:26:04;;;;;;;9.43;8.43;;;;;;;;;;4190091;34;20098;-50
2021/01/24 10:28:30;;;;;;;7.75;6.53;;;;;;;;;;4190348;34;20116;-54
2021/01/24 10:30:56;;;;;;;10.75;7.30;;;;;;;;;;4190441;34;20136;-55
2021/01/24 10:33:22;;;;;;;9.07;7.55;;;;;;;;;;4190441;34;20121;-56
2021/01/24 10:35:48;;;;;;;8.27;6.78;;;;;;;;;;4190052;34;20135;-55
2021/01/24 10:38:15;;;;;;;9.32;7.35;;;;;;;;;;4190467;34;20102;-57
2021/01/24 10:40:41;;;;;;;9.38;6.97;;;;;;;;;;4190234;34;20116;-53
2021/01/24 10:43:07;;;;;;;8.35;7.32;;;;;;;;;;4190252;34;20222;-54
2021/01/24 10:45:33;;;;;;;8.18;7.18;;;;;;;;;;4189883;34;20499;-58
2021/01/24 10:48:00;;;;;;;9.32;7.85;;;;;;;;;;4190068;34;20126;-59
2021/01/24 10:50:26;;;;;;;7.03;5.95;;;;;;;;;;4190022;34;20185;-62
2021/01/24 10:52:52;;;;;;;7.22;6.57;;;;;;;;;;4177537;34;20459;-61
2021/01/24 10:55:19;;;;;;;7.30;6.57;;;;;;;;;;4189838;34;20431;-61
2021/01/24 10:57:44;;;;;;;7.47;6.05;;;;;;;;;;4189861;34;20111;-60
2021/01/24 11:00:11;;;;;;;6.80;6.10;;;;;;;;;;4189556;34;20610;-59
2021/01/24 11:02:37;;;;;;;8.38;7.43;;;;;;;;;;4189983;34;20110;-61
2021/01/24 11:05:04;;;;;;;9.00;7.47;;;;;;;;;;4189970;34;20114;-58
2021/01/24 11:07:30;;;;;;;8.20;7.15;;;;;;;;;;4189986;34;20189;-57
2021/01/24 11:09:56;;;;;;;8.50;7.62;;;;;;;;;;4191510;34;20135;-51
2021/01/24 11:12:25;;;;;;;8.23;6.85;;;;;;;;;;4192028;34;20181;-55
2021/01/24 11:14:51;;;;;;;11.05;8.27;;;;;;;;;;4192061;34;20486;-59
2021/01/24 11:17:17;;;;;;;9.20;8.30;;;;;;;;;;4191897;34;20236;-56
2021/01/24 11:19:50;;;;;;;8.90;6.87;;;;;;;;;;4191843;34;20133;-53
2021/01/24 11:22:18;;;;;;;9.02;6.75;;;;;;;;;;4192023;34;20102;-54
2021/01/24 11:24:44;;;;;;;8.18;6.10;;;;;;;;;;4179338;34;20494;-53
2021/01/24 11:27:10;;;;;;;7.75;6.87;;;;;;;;;;4192008;34;20102;-52
2021/01/24 11:29:36;;;;;;;7.20;6.25;;;;;;;;;;4192148;34;20126;-54
2021/01/24 11:32:02;;;;;;;7.75;6.95;;;;;;;;;;4192023;34;20118;-55
2021/01/24 11:34:28;;;;;;;8.25;6.40;;;;;;;;;;4191747;34;20541;-57
2021/01/24 11:36:54;;;;;;;6.93;6.20;;;;;;;;;;4192020;34;20122;-58
2021/01/24 11:39:20;;;;;;;6.87;6.18;;;;;;;;;;4191841;34;20140;-54
2021/01/24 11:41:46;;;;;;;8.40;7.18;;;;;;;;;;4191975;34;20122;-56
2021/01/24 11:44:12;;;;;;;8.88;7.95;;;;;;;;;;4179106;34;20110;-56
2021/01/24 11:46:38;;;;;;;9.25;7.72;;;;;;;;;;4191910;34;20102;-54
2021/01/24 11:49:04;;;;;;;7.78;6.97;;;;;;;;;;4192100;34;20458;-55
2021/01/24 11:51:30;;;;;;;7.55;6.85;;;;;;;;;;4191713;34;20110;-56
2021/01/24 11:53:56;;;;;;;8.10;5.80;;;;;;;;;;4191733;34;20101;-58
2021/01/24 11:56:22;;;;;;;7.93;5.85;;;;;;;;;;4191896;34;20137;-57
2021/01/24 11:58:48;;;;;;;10.90;7.80;;;;;;;;;;4191679;34;20538;-58
2021/01/24 12:01:14;;;;;;;10.15;7.65;;;;;;;;;;4191697;34;20241;-57
2021/01/24 12:03:40;;;;;;;8.45;6.87;;;;;;;;;;4191818;34;20207;-57
2021/01/24 12:06:06;;;;;;;6.30;5.70;;;;;;;;;;4185591;34;20130;-56
2021/01/24 12:08:32;;;;;;;8.27;5.37;;;;;;;;;;4191818;34;20106;-57
2021/01/24 12:10:58;;;;;;;5.90;5.30;;;;;;;;;;4191859;34;20551;-55
2021/01/24 12:13:24;;;;;;;7.28;5.57;;;;;;;;;;4191733;34;20126;-54
2021/01/24 12:15:50;;;;;;;5.85;5.05;;;;;;;;;;4191653;34;20209;-54
2021/01/24 12:18:15;;;;;;;5.55;4.82;;;;;;;;;;4191693;34;20105;-56
2021/01/24 12:20:42;;;;;;;5.03;4.50;;;;;;;;;;4191221;34;20129;-54
2021/01/24 12:23:08;;;;;;;6.18;4.62;;;;;;;;;;4188310;34;20201;-57
2021/01/24 12:25:33;;;;;;;5.62;4.78;;;;;;;;;;4185458;34;20234;-59
2021/01/24 12:27:59;;;;;;;5.18;4.50;;;;;;;;;;4182452;34;20110;-58
2021/01/24 12:30:25;;;;;;;5.10;4.60;;;;;;;;;;4177714;34;20555;-57
2021/01/24 12:32:51;;;;;;;4.57;4.18;;;;;;;;;;4190300;34;20105;-56
2021/01/24 12:35:17;;;;;;;5.28;4.78;;;;;;;;;;4189851;34;20114;-53
2021/01/24 12:37:43;;;;;;;5.62;5.03;;;;;;;;;;4191716;34;20205;-53
2021/01/24 12:40:10;;;;;;;8.40;5.00;;;;;;;;;;4185825;34;20110;-54
2021/01/24 12:42:35;;;;;;;6.37;5.00;;;;;;;;;;4177672;34;20095;-54
2021/01/24 12:45:01;;;;;;;9.68;6.05;;;;;;;;;;4177923;34;20107;-52
2021/01/24 12:47:27;;;;;;;7.78;5.85;;;;;;;;;;4177868;34;20279;-52
2021/01/24 12:49:53;;;;;;;5.32;4.28;;;;;;;;;;4177480;34;20137;-57
2021/01/24 12:52:19;;;;;;;6.75;5.00;;;;;;;;;;4177710;34;20128;-58
2021/01/24 12:54:45;;;;;;;6.47;4.93;;;;;;;;;;4177757;34;20209;-57
2021/01/24 12:57:11;;;;;;;6.03;5.20;;;;;;;;;;4183032;34;20105;-58
2021/01/24 12:59:37;;;;;;;5.35;4.55;;;;;;;;;;4191347;34;20125;-58
2021/01/24 13:02:04;;;;;;;7.25;5.87;;;;;;;;;;4191576;34;20181;-56
2021/01/24 13:04:32;;;;;;;6.22;4.87;;;;;;;;;;4191064;34;20524;-56
2021/01/24 13:06:59;;;;;;;5.18;4.43;;;;;;;;;;4191083;34;20209;-58
2021/01/24 13:09:25;;;;;;;5.20;4.70;;;;;;;;;;4189954;34;20133;-57
2021/01/24 13:11:51;;;;;;;9.43;4.65;;;;;;;;;;4191489;34;20122;-57
2021/01/24 13:14:17;;;;;;;5.30;4.70;;;;;;;;;;4191003;34;20217;-57
2021/01/24 13:16:43;;;;;;;5.18;4.68;;;;;;;;;;4191380;34;20133;-58
2021/01/24 13:19:09;;;;;;;7.22;5.25;;;;;;;;;;4191229;34;20177;-58
2021/01/24 13:21:36;;;;;;;5.28;3.97;;;;;;;;;;4191554;34;20288;-57
2021/01/24 13:24:03;;;;;;;5.37;4.78;;;;;;;;;;4181226;34;20111;-57
2021/01/24 13:26:29;;;;;;;5.53;4.18;;;;;;;;;;4177253;34;20194;-55
2021/01/24 13:28:55;;;;;;;5.60;3.90;;;;;;;;;;4177320;34;20103;-52
2021/01/24 13:31:21;;;;;;;4.25;3.85;;;;;;;;;;4176653;34;20107;-55
2021/01/24 13:33:47;;;;;;;6.10;4.15;;;;;;;;;;4177307;34;20193;-58
2021/01/24 13:36:13;;;;;;;6.47;4.40;;;;;;;;;;4177587;34;20114;-57
2021/01/24 13:38:39;;;;;;;7.15;4.65;;;;;;;;;;4177309;34;20156;-57
2021/01/24 13:41:05;;;;;;;5.47;4.20;;;;;;;;;;4177163;34;20284;-60
2021/01/24 13:43:32;;;;;;;6.05;4.45;;;;;;;;;;4177249;34;20539;-55
2021/01/24 13:45:59;;;;;;;5.05;4.10;;;;;;;;;;4175619;34;20479;-61
2021/01/24 13:48:25;;;;;;;5.07;4.40;;;;;;;;;;4176648;34;20137;-60
2021/01/24 13:50:52;;;;;;;4.62;4.10;;;;;;;;;;4177333;34;20276;-60
2021/01/24 13:53:18;;;;;;;5.12;4.62;;;;;;;;;;4183291;34;20099;-59
2021/01/24 13:55:45;;;;;;;5.37;4.87;;;;;;;;;;4184560;34;20125;-57
2021/01/24 13:58:11;;;;;;;5.50;4.75;;;;;;;;;;4190764;34;20090;-59
2021/01/24 14:00:37;;;;;;;6.57;5.18;;;;;;;;;;4179310;34;20210;-59
2021/01/24 14:03:04;;;;;;;5.15;4.50;;;;;;;;;;4176963;34;20113;-59
2021/01/24 14:05:30;;;;;;;7.53;5.25;;;;;;;;;;4176758;34;20130;-60
2021/01/24 14:07:56;;;;;;;5.62;5.03;;;;;;;;;;4181206;34;20552;-54
2021/01/24 14:10:22;;;;;;;6.07;4.70;;;;;;;;;;4190500;34;20117;-55
2021/01/24 14:12:48;;;;;;;7.50;4.90;;;;;;;;;;4190594;34;20519;-58
2021/01/24 14:15:14;;;;;;;7.85;5.10;;;;;;;;;;4190473;34;20110;-58
2021/01/24 14:17:43;;;;;;;6.15;5.20;;;;;;;;;;4190770;34;20101;-54
2021/01/24 14:20:09;;;;;;;5.97;5.37;;;;;;;;;;4190460;34;20110;-60
2021/01/24 14:22:35;;;;;;;6.80;5.85;;;;;;;;;;4190634;34;20130;-58
2021/01/24 14:25:01;;;;;;;5.03;4.53;;;;;;;;;;4185972;34;20118;-58
2021/01/24 14:27:27;;;;;;;6.57;5.40;;;;;;;;;;4176723;34;20141;-60
2021/01/24 14:29:53;;;;;;;8.15;5.32;;;;;;;;;;4176932;34;20113;-55
2021/01/24 14:32:20;;;;;;;6.55;4.62;;;;;;;;;;4176843;34;20101;-59
2021/01/24 14:34:46;;;;;;;6.85;5.07;;;;;;;;;;4176700;34;20130;-58
2021/01/24 14:37:13;;;;;;;6.93;5.62;;;;;;;;;;4176661;34;20626;-58